sensor_id;sensor_type;location;lat;lon;timestamp;P1;durP1;ratioP1;P2;durP2;ratioP2
19207;SDS011;9737;59.466;18.036;2023-07-31T00:01:09;16.92;;;9.20;;
19207;SDS011;9737;59.466;18.036;2023-07-31T00:03:38;16.40;;;8.05;;
19207;SDS011;9737;59.466;18.036;2023-07-31T00:06:06;17.50;;;8.25;;
19207;SDS011;9737;59.466;18.036;2023-07-31T00:08:34;18.98;;;8.35;;
19207;SDS011;9737;59.466;18.036;2023-07-31T00:11:02;18.02;;;8.50;;
19207;SDS011;9737;59.466;18.036;2023-07-31T00:13:29;20.58;;;8.32;;
19207;SDS011;9737;59.466;18.036;2023-07-31T00:15:57;17.10;;;8.27;;
19207;SDS011;9737;59.466;18.036;2023-07-31T00:18:25;20.80;;;9.07;;
19207;SDS011;9737;59.466;18.036;2023-07-31T00:20:54;22.42;;;9.25;;
19207;SDS011;9737;59.466;18.036;2023-07-31T00:23:22;23.17;;;8.98;;
19207;SDS011;9737;59.466;18.036;2023-07-31T00:25:50;22.17;;;9.05;;
19207;SDS011;9737;59.466;18.036;2023-07-31T00:28:18;19.35;;;8.75;;
19207;SDS011;9737;59.466;18.036;2023-07-31T00:30:46;19.08;;;9.15;;
19207;SDS011;9737;59.466;18.036;2023-07-31T00:33:13;19.35;;;8.70;;
19207;SDS011;9737;59.466;18.036;2023-07-31T00:35:41;16.80;;;8.07;;
19207;SDS011;9737;59.466;18.036;2023-07-31T00:38:10;19.02;;;8.88;;
19207;SDS011;9737;59.466;18.036;2023-07-31T00:40:38;18.10;;;8.40;;
19207;SDS011;9737;59.466;18.036;2023-07-31T00:43:06;17.52;;;8.55;;
19207;SDS011;9737;59.466;18.036;2023-07-31T00:45:34;19.73;;;8.48;;
19207;SDS011;9737;59.466;18.036;2023-07-31T00:48:02;18.75;;;9.02;;
19207;SDS011;9737;59.466;18.036;2023-07-31T00:50:32;17.17;;;8.80;;
19207;SDS011;9737;59.466;18.036;2023-07-31T00:53:00;18.75;;;8.70;;
19207;SDS011;9737;59.466;18.036;2023-07-31T00:55:30;16.27;;;8.75;;
19207;SDS011;9737;59.466;18.036;2023-07-31T00:57:58;19.98;;;8.40;;
19207;SDS011;9737;59.466;18.036;2023-07-31T01:00:26;19.85;;;9.32;;
19207;SDS011;9737;59.466;18.036;2023-07-31T01:02:54;18.10;;;8.20;;
19207;SDS011;9737;59.466;18.036;2023-07-31T01:05:23;20.52;;;9.05;;
19207;SDS011;9737;59.466;18.036;2023-07-31T01:08:03;20.92;;;8.20;;
19207;SDS011;9737;59.466;18.036;2023-07-31T01:10:34;20.50;;;9.30;;
19207;SDS011;9737;59.466;18.036;2023-07-31T01:13:12;20.92;;;9.10;;
19207;SDS011;9737;59.466;18.036;2023-07-31T01:15:40;19.67;;;8.77;;
19207;SDS011;9737;59.466;18.036;2023-07-31T01:18:08;26.00;;;9.15;;
19207;SDS011;9737;59.466;18.036;2023-07-31T01:20:35;23.58;;;8.90;;
19207;SDS011;9737;59.466;18.036;2023-07-31T01:26:05;20.55;;;9.52;;
19207;SDS011;9737;59.466;18.036;2023-07-31T01:28:44;19.83;;;9.27;;
19207;SDS011;9737;59.466;18.036;2023-07-31T01:31:20;17.83;;;8.38;;
19207;SDS011;9737;59.466;18.036;2023-07-31T01:33:50;21.17;;;9.15;;
19207;SDS011;9737;59.466;18.036;2023-07-31T01:36:20;20.10;;;9.18;;
19207;SDS011;9737;59.466;18.036;2023-07-31T01:38:48;15.80;;;8.10;;
19207;SDS011;9737;59.466;18.036;2023-07-31T01:41:18;18.58;;;9.25;;
19207;SDS011;9737;59.466;18.036;2023-07-31T01:43:46;19.33;;;8.88;;
19207;SDS011;9737;59.466;18.036;2023-07-31T01:46:14;24.40;;;9.63;;
19207;SDS011;9737;59.466;18.036;2023-07-31T01:48:42;17.42;;;8.93;;
19207;SDS011;9737;59.466;18.036;2023-07-31T01:51:10;21.00;;;8.73;;
19207;SDS011;9737;59.466;18.036;2023-07-31T01:53:37;20.20;;;9.27;;
19207;SDS011;9737;59.466;18.036;2023-07-31T01:56:06;23.75;;;9.35;;
19207;SDS011;9737;59.466;18.036;2023-07-31T01:58:35;19.90;;;9.65;;
19207;SDS011;9737;59.466;18.036;2023-07-31T02:01:03;22.77;;;10.23;;
19207;SDS011;9737;59.466;18.036;2023-07-31T02:03:30;21.33;;;9.50;;
19207;SDS011;9737;59.466;18.036;2023-07-31T02:05:58;21.55;;;9.15;;
19207;SDS011;9737;59.466;18.036;2023-07-31T02:08:26;19.02;;;8.88;;
19207;SDS011;9737;59.466;18.036;2023-07-31T02:10:54;18.58;;;9.48;;
19207;SDS011;9737;59.466;18.036;2023-07-31T02:13:22;17.27;;;8.77;;
19207;SDS011;9737;59.466;18.036;2023-07-31T02:15:51;20.98;;;9.40;;
19207;SDS011;9737;59.466;18.036;2023-07-31T02:18:19;17.08;;;8.85;;
19207;SDS011;9737;59.466;18.036;2023-07-31T02:20:48;26.27;;;10.23;;
19207;SDS011;9737;59.466;18.036;2023-07-31T02:23:17;22.00;;;10.15;;
19207;SDS011;9737;59.466;18.036;2023-07-31T02:25:45;22.75;;;9.95;;
19207;SDS011;9737;59.466;18.036;2023-07-31T02:28:13;24.67;;;11.18;;
19207;SDS011;9737;59.466;18.036;2023-07-31T02:30:43;23.83;;;10.75;;
19207;SDS011;9737;59.466;18.036;2023-07-31T02:33:13;26.38;;;10.82;;
19207;SDS011;9737;59.466;18.036;2023-07-31T02:35:43;21.25;;;10.38;;
19207;SDS011;9737;59.466;18.036;2023-07-31T02:38:11;26.25;;;11.23;;
19207;SDS011;9737;59.466;18.036;2023-07-31T02:40:39;21.65;;;10.43;;
19207;SDS011;9737;59.466;18.036;2023-07-31T02:43:07;22.42;;;11.10;;
19207;SDS011;9737;59.466;18.036;2023-07-31T02:45:35;30.77;;;12.30;;
19207;SDS011;9737;59.466;18.036;2023-07-31T02:48:03;25.80;;;12.25;;
19207;SDS011;9737;59.466;18.036;2023-07-31T02:50:32;26.33;;;11.88;;
19207;SDS011;9737;59.466;18.036;2023-07-31T02:53:00;28.70;;;12.32;;
19207;SDS011;9737;59.466;18.036;2023-07-31T02:55:28;27.95;;;12.45;;
19207;SDS011;9737;59.466;18.036;2023-07-31T02:57:56;28.63;;;13.40;;
19207;SDS011;9737;59.466;18.036;2023-07-31T03:00:24;30.77;;;13.38;;
19207;SDS011;9737;59.466;18.036;2023-07-31T03:02:52;27.48;;;13.25;;
19207;SDS011;9737;59.466;18.036;2023-07-31T03:05:20;35.03;;;15.30;;
19207;SDS011;9737;59.466;18.036;2023-07-31T03:07:49;29.98;;;14.63;;
19207;SDS011;9737;59.466;18.036;2023-07-31T03:10:17;28.77;;;13.90;;
19207;SDS011;9737;59.466;18.036;2023-07-31T03:12:46;33.25;;;14.20;;
19207;SDS011;9737;59.466;18.036;2023-07-31T03:15:14;32.00;;;14.00;;
19207;SDS011;9737;59.466;18.036;2023-07-31T03:17:42;28.58;;;14.25;;
19207;SDS011;9737;59.466;18.036;2023-07-31T03:20:10;33.05;;;13.88;;
19207;SDS011;9737;59.466;18.036;2023-07-31T03:22:38;37.20;;;14.23;;
19207;SDS011;9737;59.466;18.036;2023-07-31T03:25:08;31.13;;;13.90;;
19207;SDS011;9737;59.466;18.036;2023-07-31T03:27:36;29.48;;;13.38;;
19207;SDS011;9737;59.466;18.036;2023-07-31T03:30:05;29.50;;;13.95;;
19207;SDS011;9737;59.466;18.036;2023-07-31T03:32:33;36.90;;;15.48;;
19207;SDS011;9737;59.466;18.036;2023-07-31T03:35:01;39.35;;;14.50;;
19207;SDS011;9737;59.466;18.036;2023-07-31T03:37:31;31.25;;;15.02;;
19207;SDS011;9737;59.466;18.036;2023-07-31T03:39:59;34.17;;;15.45;;
19207;SDS011;9737;59.466;18.036;2023-07-31T03:42:28;39.88;;;14.80;;
19207;SDS011;9737;59.466;18.036;2023-07-31T03:44:56;36.60;;;14.88;;
19207;SDS011;9737;59.466;18.036;2023-07-31T03:47:24;40.17;;;14.50;;
19207;SDS011;9737;59.466;18.036;2023-07-31T03:49:52;37.22;;;15.23;;
19207;SDS011;9737;59.466;18.036;2023-07-31T03:52:20;26.98;;;14.25;;
19207;SDS011;9737;59.466;18.036;2023-07-31T03:54:48;31.17;;;14.30;;
19207;SDS011;9737;59.466;18.036;2023-07-31T03:57:16;32.97;;;14.05;;
19207;SDS011;9737;59.466;18.036;2023-07-31T03:59:45;26.63;;;11.07;;
19207;SDS011;9737;59.466;18.036;2023-07-31T04:02:13;25.10;;;11.48;;
19207;SDS011;9737;59.466;18.036;2023-07-31T04:04:41;28.25;;;12.73;;
19207;SDS011;9737;59.466;18.036;2023-07-31T04:07:09;32.35;;;14.15;;
19207;SDS011;9737;59.466;18.036;2023-07-31T04:09:37;27.83;;;12.60;;
19207;SDS011;9737;59.466;18.036;2023-07-31T04:12:05;23.48;;;12.20;;
19207;SDS011;9737;59.466;18.036;2023-07-31T04:14:33;25.42;;;11.88;;
19207;SDS011;9737;59.466;18.036;2023-07-31T04:17:02;24.90;;;11.80;;
19207;SDS011;9737;59.466;18.036;2023-07-31T04:19:30;25.65;;;12.05;;
19207;SDS011;9737;59.466;18.036;2023-07-31T04:21:58;25.27;;;11.82;;
19207;SDS011;9737;59.466;18.036;2023-07-31T04:24:26;27.58;;;12.52;;
19207;SDS011;9737;59.466;18.036;2023-07-31T04:26:54;26.73;;;11.57;;
19207;SDS011;9737;59.466;18.036;2023-07-31T04:29:24;26.38;;;12.23;;
19207;SDS011;9737;59.466;18.036;2023-07-31T04:31:52;29.00;;;12.05;;
19207;SDS011;9737;59.466;18.036;2023-07-31T04:34:21;31.17;;;13.30;;
19207;SDS011;9737;59.466;18.036;2023-07-31T04:36:49;29.77;;;12.70;;
19207;SDS011;9737;59.466;18.036;2023-07-31T04:39:16;38.15;;;14.82;;
19207;SDS011;9737;59.466;18.036;2023-07-31T04:41:44;37.22;;;14.30;;
19207;SDS011;9737;59.466;18.036;2023-07-31T04:44:12;36.50;;;14.43;;
19207;SDS011;9737;59.466;18.036;2023-07-31T04:46:40;33.95;;;15.10;;
19207;SDS011;9737;59.466;18.036;2023-07-31T04:49:08;44.22;;;14.93;;
19207;SDS011;9737;59.466;18.036;2023-07-31T04:51:37;42.97;;;14.45;;
19207;SDS011;9737;59.466;18.036;2023-07-31T04:54:05;38.10;;;14.95;;
19207;SDS011;9737;59.466;18.036;2023-07-31T04:56:33;27.58;;;12.65;;
19207;SDS011;9737;59.466;18.036;2023-07-31T04:59:01;33.10;;;13.57;;
19207;SDS011;9737;59.466;18.036;2023-07-31T05:01:28;30.83;;;14.88;;
19207;SDS011;9737;59.466;18.036;2023-07-31T05:03:56;33.72;;;14.88;;
19207;SDS011;9737;59.466;18.036;2023-07-31T05:06:24;23.73;;;13.73;;
19207;SDS011;9737;59.466;18.036;2023-07-31T05:08:53;26.02;;;14.88;;
19207;SDS011;9737;59.466;18.036;2023-07-31T05:11:21;29.65;;;14.68;;
19207;SDS011;9737;59.466;18.036;2023-07-31T05:13:49;31.67;;;13.55;;
19207;SDS011;9737;59.466;18.036;2023-07-31T05:16:17;27.02;;;13.70;;
19207;SDS011;9737;59.466;18.036;2023-07-31T05:18:45;30.02;;;14.55;;
19207;SDS011;9737;59.466;18.036;2023-07-31T05:21:13;24.38;;;14.30;;
19207;SDS011;9737;59.466;18.036;2023-07-31T05:23:40;28.98;;;15.65;;
19207;SDS011;9737;59.466;18.036;2023-07-31T05:26:10;31.45;;;14.73;;
19207;SDS011;9737;59.466;18.036;2023-07-31T05:28:38;27.23;;;15.07;;
19207;SDS011;9737;59.466;18.036;2023-07-31T05:31:06;33.53;;;16.73;;
19207;SDS011;9737;59.466;18.036;2023-07-31T05:33:33;30.67;;;17.00;;
19207;SDS011;9737;59.466;18.036;2023-07-31T05:36:01;29.67;;;15.70;;
19207;SDS011;9737;59.466;18.036;2023-07-31T05:38:29;36.67;;;16.70;;
19207;SDS011;9737;59.466;18.036;2023-07-31T05:40:57;31.85;;;15.82;;
19207;SDS011;9737;59.466;18.036;2023-07-31T05:43:26;35.08;;;16.85;;
19207;SDS011;9737;59.466;18.036;2023-07-31T05:45:54;31.50;;;17.35;;
19207;SDS011;9737;59.466;18.036;2023-07-31T05:48:22;32.58;;;16.17;;
19207;SDS011;9737;59.466;18.036;2023-07-31T05:50:50;29.33;;;16.88;;
19207;SDS011;9737;59.466;18.036;2023-07-31T05:53:18;24.58;;;15.27;;
19207;SDS011;9737;59.466;18.036;2023-07-31T05:55:46;25.13;;;16.35;;
19207;SDS011;9737;59.466;18.036;2023-07-31T05:58:14;28.67;;;15.38;;
19207;SDS011;9737;59.466;18.036;2023-07-31T06:00:43;23.80;;;15.02;;
19207;SDS011;9737;59.466;18.036;2023-07-31T06:03:11;24.52;;;15.65;;
19207;SDS011;9737;59.466;18.036;2023-07-31T06:05:39;27.63;;;15.65;;
19207;SDS011;9737;59.466;18.036;2023-07-31T06:08:07;29.85;;;15.43;;
19207;SDS011;9737;59.466;18.036;2023-07-31T06:10:35;25.08;;;15.50;;
19207;SDS011;9737;59.466;18.036;2023-07-31T06:13:03;21.17;;;14.40;;
19207;SDS011;9737;59.466;18.036;2023-07-31T06:15:31;25.88;;;13.82;;
19207;SDS011;9737;59.466;18.036;2023-07-31T06:18:00;22.83;;;14.15;;
19207;SDS011;9737;59.466;18.036;2023-07-31T06:20:29;24.63;;;12.90;;
19207;SDS011;9737;59.466;18.036;2023-07-31T06:22:57;27.10;;;14.25;;
19207;SDS011;9737;59.466;18.036;2023-07-31T06:25:25;22.00;;;13.25;;
19207;SDS011;9737;59.466;18.036;2023-07-31T06:27:53;21.13;;;13.57;;
19207;SDS011;9737;59.466;18.036;2023-07-31T06:30:21;21.13;;;13.32;;
19207;SDS011;9737;59.466;18.036;2023-07-31T06:32:48;22.00;;;13.40;;
19207;SDS011;9737;59.466;18.036;2023-07-31T06:35:18;22.90;;;14.00;;
19207;SDS011;9737;59.466;18.036;2023-07-31T06:37:46;21.52;;;14.13;;
19207;SDS011;9737;59.466;18.036;2023-07-31T06:40:14;21.45;;;14.93;;
19207;SDS011;9737;59.466;18.036;2023-07-31T06:42:42;24.63;;;14.65;;
19207;SDS011;9737;59.466;18.036;2023-07-31T06:45:10;26.48;;;14.88;;
19207;SDS011;9737;59.466;18.036;2023-07-31T06:47:38;27.95;;;14.82;;
19207;SDS011;9737;59.466;18.036;2023-07-31T06:50:07;23.58;;;14.00;;
19207;SDS011;9737;59.466;18.036;2023-07-31T06:52:37;25.75;;;14.60;;
19207;SDS011;9737;59.466;18.036;2023-07-31T06:55:15;26.98;;;13.77;;
19207;SDS011;9737;59.466;18.036;2023-07-31T06:57:45;24.00;;;13.25;;
19207;SDS011;9737;59.466;18.036;2023-07-31T07:00:13;23.92;;;12.40;;
19207;SDS011;9737;59.466;18.036;2023-07-31T07:02:42;20.63;;;11.70;;
19207;SDS011;9737;59.466;18.036;2023-07-31T07:05:10;17.63;;;10.95;;
19207;SDS011;9737;59.466;18.036;2023-07-31T07:07:40;15.75;;;8.75;;
19207;SDS011;9737;59.466;18.036;2023-07-31T07:10:08;15.32;;;8.68;;
19207;SDS011;9737;59.466;18.036;2023-07-31T07:12:36;13.60;;;9.50;;
19207;SDS011;9737;59.466;18.036;2023-07-31T07:15:05;12.98;;;9.00;;
19207;SDS011;9737;59.466;18.036;2023-07-31T07:17:33;10.50;;;7.95;;
19207;SDS011;9737;59.466;18.036;2023-07-31T07:20:01;14.75;;;8.20;;
19207;SDS011;9737;59.466;18.036;2023-07-31T07:22:29;15.90;;;7.22;;
19207;SDS011;9737;59.466;18.036;2023-07-31T07:24:58;14.43;;;7.75;;
19207;SDS011;9737;59.466;18.036;2023-07-31T07:27:26;12.00;;;7.35;;
19207;SDS011;9737;59.466;18.036;2023-07-31T07:29:54;12.00;;;6.90;;
19207;SDS011;9737;59.466;18.036;2023-07-31T07:32:22;11.63;;;6.22;;
19207;SDS011;9737;59.466;18.036;2023-07-31T07:34:50;12.85;;;6.85;;
19207;SDS011;9737;59.466;18.036;2023-07-31T07:37:18;27.23;;;6.88;;
19207;SDS011;9737;59.466;18.036;2023-07-31T07:39:45;20.58;;;6.78;;
19207;SDS011;9737;59.466;18.036;2023-07-31T07:42:15;17.02;;;6.47;;
19207;SDS011;9737;59.466;18.036;2023-07-31T07:44:42;11.00;;;5.72;;
19207;SDS011;9737;59.466;18.036;2023-07-31T07:47:10;12.50;;;5.43;;
19207;SDS011;9737;59.466;18.036;2023-07-31T07:49:38;15.25;;;5.50;;
19207;SDS011;9737;59.466;18.036;2023-07-31T07:52:07;15.70;;;5.60;;
19207;SDS011;9737;59.466;18.036;2023-07-31T07:54:35;12.57;;;5.57;;
19207;SDS011;9737;59.466;18.036;2023-07-31T07:57:03;14.23;;;5.63;;
19207;SDS011;9737;59.466;18.036;2023-07-31T07:59:33;11.98;;;5.63;;
19207;SDS011;9737;59.466;18.036;2023-07-31T08:02:01;12.48;;;6.03;;
19207;SDS011;9737;59.466;18.036;2023-07-31T08:04:28;12.95;;;5.82;;
19207;SDS011;9737;59.466;18.036;2023-07-31T08:06:56;11.23;;;6.13;;
19207;SDS011;9737;59.466;18.036;2023-07-31T08:09:24;17.58;;;6.38;;
19207;SDS011;9737;59.466;18.036;2023-07-31T08:11:52;15.95;;;6.25;;
19207;SDS011;9737;59.466;18.036;2023-07-31T08:14:21;16.85;;;6.43;;
19207;SDS011;9737;59.466;18.036;2023-07-31T08:16:50;16.35;;;6.82;;
19207;SDS011;9737;59.466;18.036;2023-07-31T08:19:18;19.60;;;6.85;;
19207;SDS011;9737;59.466;18.036;2023-07-31T08:21:45;17.23;;;6.07;;
19207;SDS011;9737;59.466;18.036;2023-07-31T08:24:13;18.42;;;6.90;;
19207;SDS011;9737;59.466;18.036;2023-07-31T08:26:41;23.80;;;6.68;;
19207;SDS011;9737;59.466;18.036;2023-07-31T08:29:09;14.27;;;6.03;;
19207;SDS011;9737;59.466;18.036;2023-07-31T08:31:37;11.48;;;6.35;;
19207;SDS011;9737;59.466;18.036;2023-07-31T08:34:06;17.50;;;6.72;;
19207;SDS011;9737;59.466;18.036;2023-07-31T08:36:34;20.15;;;6.78;;
19207;SDS011;9737;59.466;18.036;2023-07-31T08:39:02;13.20;;;6.55;;
19207;SDS011;9737;59.466;18.036;2023-07-31T08:41:30;14.80;;;6.30;;
19207;SDS011;9737;59.466;18.036;2023-07-31T08:43:58;12.68;;;6.38;;
19207;SDS011;9737;59.466;18.036;2023-07-31T08:46:28;14.75;;;6.72;;
19207;SDS011;9737;59.466;18.036;2023-07-31T08:48:57;14.48;;;6.70;;
19207;SDS011;9737;59.466;18.036;2023-07-31T08:51:27;23.40;;;7.13;;
19207;SDS011;9737;59.466;18.036;2023-07-31T08:53:55;16.13;;;7.15;;
19207;SDS011;9737;59.466;18.036;2023-07-31T08:56:23;18.40;;;6.43;;
19207;SDS011;9737;59.466;18.036;2023-07-31T08:58:53;16.98;;;7.05;;
19207;SDS011;9737;59.466;18.036;2023-07-31T09:01:24;18.08;;;7.40;;
19207;SDS011;9737;59.466;18.036;2023-07-31T09:03:52;17.95;;;7.20;;
19207;SDS011;9737;59.466;18.036;2023-07-31T09:06:22;18.55;;;6.97;;
19207;SDS011;9737;59.466;18.036;2023-07-31T09:08:54;20.25;;;6.60;;
19207;SDS011;9737;59.466;18.036;2023-07-31T09:11:21;21.85;;;6.95;;
19207;SDS011;9737;59.466;18.036;2023-07-31T09:13:52;13.38;;;6.50;;
19207;SDS011;9737;59.466;18.036;2023-07-31T09:16:26;17.90;;;7.25;;
19207;SDS011;9737;59.466;18.036;2023-07-31T09:18:57;23.10;;;7.80;;
19207;SDS011;9737;59.466;18.036;2023-07-31T09:21:28;14.00;;;7.70;;
19207;SDS011;9737;59.466;18.036;2023-07-31T09:23:57;19.17;;;7.70;;
19207;SDS011;9737;59.466;18.036;2023-07-31T09:26:28;16.42;;;7.07;;
19207;SDS011;9737;59.466;18.036;2023-07-31T09:28:57;16.42;;;6.57;;
19207;SDS011;9737;59.466;18.036;2023-07-31T09:31:32;14.23;;;6.18;;
19207;SDS011;9737;59.466;18.036;2023-07-31T09:34:01;14.23;;;5.78;;
19207;SDS011;9737;59.466;18.036;2023-07-31T09:36:29;15.63;;;5.00;;
19207;SDS011;9737;59.466;18.036;2023-07-31T09:39:02;13.98;;;5.15;;
19207;SDS011;9737;59.466;18.036;2023-07-31T09:41:30;16.70;;;4.88;;
19207;SDS011;9737;59.466;18.036;2023-07-31T09:43:58;8.95;;;4.28;;
19207;SDS011;9737;59.466;18.036;2023-07-31T09:46:26;11.05;;;4.47;;
19207;SDS011;9737;59.466;18.036;2023-07-31T09:49:03;12.75;;;4.15;;
19207;SDS011;9737;59.466;18.036;2023-07-31T09:51:32;14.75;;;4.43;;
19207;SDS011;9737;59.466;18.036;2023-07-31T09:54:12;12.30;;;4.20;;
19207;SDS011;9737;59.466;18.036;2023-07-31T09:56:44;10.73;;;3.83;;
19207;SDS011;9737;59.466;18.036;2023-07-31T09:59:13;15.25;;;4.10;;
19207;SDS011;9737;59.466;18.036;2023-07-31T10:01:42;11.25;;;4.13;;
19207;SDS011;9737;59.466;18.036;2023-07-31T10:04:12;9.52;;;4.00;;
19207;SDS011;9737;59.466;18.036;2023-07-31T10:06:42;8.02;;;3.28;;
19207;SDS011;9737;59.466;18.036;2023-07-31T10:09:13;7.20;;;2.70;;
19207;SDS011;9737;59.466;18.036;2023-07-31T10:11:46;7.82;;;2.45;;
19207;SDS011;9737;59.466;18.036;2023-07-31T10:14:19;8.27;;;2.03;;
19207;SDS011;9737;59.466;18.036;2023-07-31T10:16:48;5.88;;;2.35;;
19207;SDS011;9737;59.466;18.036;2023-07-31T10:19:18;9.15;;;2.47;;
19207;SDS011;9737;59.466;18.036;2023-07-31T10:21:46;6.28;;;2.17;;
19207;SDS011;9737;59.466;18.036;2023-07-31T10:24:17;5.88;;;2.20;;
19207;SDS011;9737;59.466;18.036;2023-07-31T10:26:45;6.78;;;2.13;;
19207;SDS011;9737;59.466;18.036;2023-07-31T10:29:15;9.05;;;2.70;;
19207;SDS011;9737;59.466;18.036;2023-07-31T10:31:46;4.93;;;1.95;;
19207;SDS011;9737;59.466;18.036;2023-07-31T10:34:14;3.55;;;1.80;;
19207;SDS011;9737;59.466;18.036;2023-07-31T10:36:42;6.15;;;2.20;;
19207;SDS011;9737;59.466;18.036;2023-07-31T10:42:11;6.40;;;2.08;;
19207;SDS011;9737;59.466;18.036;2023-07-31T10:44:43;11.55;;;2.33;;
19207;SDS011;9737;59.466;18.036;2023-07-31T10:47:14;6.05;;;2.17;;
19207;SDS011;9737;59.466;18.036;2023-07-31T10:49:44;11.75;;;2.08;;
19207;SDS011;9737;59.466;18.036;2023-07-31T10:52:12;8.02;;;2.40;;
19207;SDS011;9737;59.466;18.036;2023-07-31T10:54:42;10.77;;;2.38;;
19207;SDS011;9737;59.466;18.036;2023-07-31T10:57:18;7.28;;;2.22;;
19207;SDS011;9737;59.466;18.036;2023-07-31T10:59:47;6.97;;;2.20;;
19207;SDS011;9737;59.466;18.036;2023-07-31T11:02:25;8.45;;;2.40;;
19207;SDS011;9737;59.466;18.036;2023-07-31T11:05:06;4.03;;;2.30;;
19207;SDS011;9737;59.466;18.036;2023-07-31T11:07:47;6.55;;;2.45;;
19207;SDS011;9737;59.466;18.036;2023-07-31T11:10:17;5.32;;;2.40;;
19207;SDS011;9737;59.466;18.036;2023-07-31T11:12:45;6.55;;;2.58;;
19207;SDS011;9737;59.466;18.036;2023-07-31T11:15:13;7.18;;;2.85;;
19207;SDS011;9737;59.466;18.036;2023-07-31T11:17:42;11.15;;;2.90;;
19207;SDS011;9737;59.466;18.036;2023-07-31T11:20:10;5.57;;;2.42;;
19207;SDS011;9737;59.466;18.036;2023-07-31T11:22:38;8.75;;;2.75;;
19207;SDS011;9737;59.466;18.036;2023-07-31T11:25:07;6.47;;;2.42;;
19207;SDS011;9737;59.466;18.036;2023-07-31T11:27:39;8.38;;;2.80;;
19207;SDS011;9737;59.466;18.036;2023-07-31T11:30:08;12.15;;;2.60;;
19207;SDS011;9737;59.466;18.036;2023-07-31T11:32:37;8.07;;;2.90;;
19207;SDS011;9737;59.466;18.036;2023-07-31T11:35:05;15.10;;;3.35;;
19207;SDS011;9737;59.466;18.036;2023-07-31T11:37:38;7.00;;;2.63;;
19207;SDS011;9737;59.466;18.036;2023-07-31T11:40:07;9.98;;;3.00;;
19207;SDS011;9737;59.466;18.036;2023-07-31T11:42:36;7.35;;;2.67;;
19207;SDS011;9737;59.466;18.036;2023-07-31T11:45:05;5.57;;;2.63;;
19207;SDS011;9737;59.466;18.036;2023-07-31T11:47:35;4.63;;;2.55;;
19207;SDS011;9737;59.466;18.036;2023-07-31T11:50:05;9.00;;;3.10;;
19207;SDS011;9737;59.466;18.036;2023-07-31T11:52:37;10.88;;;3.55;;
19207;SDS011;9737;59.466;18.036;2023-07-31T11:55:09;4.03;;;2.70;;
19207;SDS011;9737;59.466;18.036;2023-07-31T11:57:37;7.38;;;2.92;;
19207;SDS011;9737;59.466;18.036;2023-07-31T12:00:09;7.35;;;2.90;;
19207;SDS011;9737;59.466;18.036;2023-07-31T12:02:39;8.32;;;3.20;;
19207;SDS011;9737;59.466;18.036;2023-07-31T12:05:10;5.93;;;2.78;;
19207;SDS011;9737;59.466;18.036;2023-07-31T12:07:45;4.50;;;2.80;;
19207;SDS011;9737;59.466;18.036;2023-07-31T12:10:24;8.90;;;3.38;;
19207;SDS011;9737;59.466;18.036;2023-07-31T12:12:56;6.38;;;3.00;;
19207;SDS011;9737;59.466;18.036;2023-07-31T12:15:33;9.00;;;3.05;;
19207;SDS011;9737;59.466;18.036;2023-07-31T12:18:06;5.38;;;3.15;;
19207;SDS011;9737;59.466;18.036;2023-07-31T12:20:39;8.00;;;2.88;;
19207;SDS011;9737;59.466;18.036;2023-07-31T12:23:15;7.10;;;2.88;;
19207;SDS011;9737;59.466;18.036;2023-07-31T12:25:44;7.03;;;2.70;;
19207;SDS011;9737;59.466;18.036;2023-07-31T12:28:12;7.85;;;3.13;;
19207;SDS011;9737;59.466;18.036;2023-07-31T12:30:42;6.05;;;3.00;;
19207;SDS011;9737;59.466;18.036;2023-07-31T12:33:13;4.82;;;2.88;;
19207;SDS011;9737;59.466;18.036;2023-07-31T12:35:43;9.20;;;3.28;;
19207;SDS011;9737;59.466;18.036;2023-07-31T12:38:13;9.55;;;3.60;;
19207;SDS011;9737;59.466;18.036;2023-07-31T12:40:41;5.72;;;2.60;;
19207;SDS011;9737;59.466;18.036;2023-07-31T12:43:09;7.75;;;2.92;;
19207;SDS011;9737;59.466;18.036;2023-07-31T12:45:37;5.90;;;2.70;;
19207;SDS011;9737;59.466;18.036;2023-07-31T12:48:06;4.63;;;2.63;;
19207;SDS011;9737;59.466;18.036;2023-07-31T12:50:34;8.00;;;2.97;;
19207;SDS011;9737;59.466;18.036;2023-07-31T12:53:03;5.80;;;2.88;;
19207;SDS011;9737;59.466;18.036;2023-07-31T12:55:32;4.43;;;2.70;;
19207;SDS011;9737;59.466;18.036;2023-07-31T12:58:00;7.53;;;3.00;;
19207;SDS011;9737;59.466;18.036;2023-07-31T13:00:28;6.75;;;3.05;;
19207;SDS011;9737;59.466;18.036;2023-07-31T13:02:56;6.82;;;3.20;;
19207;SDS011;9737;59.466;18.036;2023-07-31T13:05:26;5.20;;;2.88;;
19207;SDS011;9737;59.466;18.036;2023-07-31T13:07:54;7.45;;;3.08;;
19207;SDS011;9737;59.466;18.036;2023-07-31T13:10:22;6.40;;;3.10;;
19207;SDS011;9737;59.466;18.036;2023-07-31T13:12:51;6.35;;;3.10;;
19207;SDS011;9737;59.466;18.036;2023-07-31T13:15:18;7.10;;;2.90;;
19207;SDS011;9737;59.466;18.036;2023-07-31T13:17:46;4.68;;;2.45;;
19207;SDS011;9737;59.466;18.036;2023-07-31T13:20:14;5.53;;;2.70;;
19207;SDS011;9737;59.466;18.036;2023-07-31T13:22:43;5.38;;;2.38;;
19207;SDS011;9737;59.466;18.036;2023-07-31T13:25:12;5.03;;;2.38;;
19207;SDS011;9737;59.466;18.036;2023-07-31T13:27:40;8.55;;;2.92;;
19207;SDS011;9737;59.466;18.036;2023-07-31T13:30:08;5.43;;;2.50;;
19207;SDS011;9737;59.466;18.036;2023-07-31T13:32:36;6.03;;;3.50;;
19207;SDS011;9737;59.466;18.036;2023-07-31T13:35:05;6.15;;;2.90;;
19207;SDS011;9737;59.466;18.036;2023-07-31T13:37:34;4.35;;;2.75;;
19207;SDS011;9737;59.466;18.036;2023-07-31T13:40:04;5.57;;;2.50;;
19207;SDS011;9737;59.466;18.036;2023-07-31T13:42:32;4.53;;;2.63;;
19207;SDS011;9737;59.466;18.036;2023-07-31T13:45:00;6.05;;;2.72;;
19207;SDS011;9737;59.466;18.036;2023-07-31T13:47:32;7.28;;;2.17;;
19207;SDS011;9737;59.466;18.036;2023-07-31T13:50:01;5.70;;;2.70;;
19207;SDS011;9737;59.466;18.036;2023-07-31T13:52:29;4.68;;;2.65;;
19207;SDS011;9737;59.466;18.036;2023-07-31T13:54:57;3.58;;;2.65;;
19207;SDS011;9737;59.466;18.036;2023-07-31T13:57:26;3.15;;;2.40;;
19207;SDS011;9737;59.466;18.036;2023-07-31T13:59:54;3.90;;;2.17;;
19207;SDS011;9737;59.466;18.036;2023-07-31T14:02:22;5.13;;;2.33;;
19207;SDS011;9737;59.466;18.036;2023-07-31T14:04:50;3.15;;;2.20;;
19207;SDS011;9737;59.466;18.036;2023-07-31T14:07:18;2.55;;;2.00;;
19207;SDS011;9737;59.466;18.036;2023-07-31T14:09:46;3.80;;;2.50;;
19207;SDS011;9737;59.466;18.036;2023-07-31T14:12:14;3.78;;;2.30;;
19207;SDS011;9737;59.466;18.036;2023-07-31T14:15:03;3.10;;;2.10;;
19207;SDS011;9737;59.466;18.036;2023-07-31T14:17:31;7.07;;;2.10;;
19207;SDS011;9737;59.466;18.036;2023-07-31T14:19:59;3.55;;;2.33;;
19207;SDS011;9737;59.466;18.036;2023-07-31T14:22:28;4.32;;;1.90;;
19207;SDS011;9737;59.466;18.036;2023-07-31T14:24:56;2.67;;;1.90;;
19207;SDS011;9737;59.466;18.036;2023-07-31T14:27:24;4.55;;;2.08;;
19207;SDS011;9737;59.466;18.036;2023-07-31T14:29:52;2.47;;;1.90;;
19207;SDS011;9737;59.466;18.036;2023-07-31T14:32:22;4.90;;;2.17;;
19207;SDS011;9737;59.466;18.036;2023-07-31T14:34:52;3.05;;;1.88;;
19207;SDS011;9737;59.466;18.036;2023-07-31T14:37:21;3.15;;;2.13;;
19207;SDS011;9737;59.466;18.036;2023-07-31T14:39:48;3.58;;;1.95;;
19207;SDS011;9737;59.466;18.036;2023-07-31T14:42:17;3.65;;;2.08;;
19207;SDS011;9737;59.466;18.036;2023-07-31T14:44:45;2.95;;;1.80;;
19207;SDS011;9737;59.466;18.036;2023-07-31T14:47:14;2.10;;;1.70;;
19207;SDS011;9737;59.466;18.036;2023-07-31T14:49:43;5.88;;;1.92;;